Time;durP1;ratioP1;P1;durP2;ratioP2;P2;SDS_P1;SDS_P2;PMS_P1;PMS_P2;Temp;Humidity;BMP_temperature;BMP_pressure;BME280_temperature;BME280_humidity;BME280_pressure;Samples;Min_cycle;Max_cycle;Signal;HPM_P1;HPM_P2
2021/12/14 00:01:35;;;;;;;18.20;14.60;;;;;;;;;;5033113;28;20218;-73
2021/12/14 00:04:11;;;;;;;16.10;13.80;;;;;;;;;;5033295;28;20977;-72
2021/12/14 00:06:38;;;;;;;15.30;13.30;;;;;;;;;;5038679;28;20191;-74
2021/12/14 00:09:05;;;;;;;16.40;13.63;;;;;;;;;;5038144;28;20454;-74
2021/12/14 00:16:46;;;;;;;16.50;12.80;;;;;;;;;;5031749;28;21032;-74
2021/12/14 00:19:12;;;;;;;13.50;12.10;;;;;;;;;;5039252;28;20441;-74
2021/12/14 00:21:37;;;;;;;16.90;12.80;;;;;;;;;;5037979;28;20437;-74
2021/12/14 00:24:06;;;;;;;14.37;12.60;;;;;;;;;;5036983;28;20207;-74
2021/12/14 00:26:33;;;;;;;13.90;12.43;;;;;;;;;;5038898;28;20184;-75
2021/12/14 00:28:58;;;;;;;16.40;13.67;;;;;;;;;;5034748;28;20435;-75
2021/12/14 00:31:23;;;;;;;13.13;10.97;;;;;;;;;;5036367;28;20802;-74
2021/12/14 00:33:51;;;;;;;16.50;13.50;;;;;;;;;;5034052;28;20216;-74
2021/12/14 00:36:17;;;;;;;13.87;12.30;;;;;;;;;;5035386;28;20312;-74
2021/12/14 00:38:43;;;;;;;14.10;12.20;;;;;;;;;;5032155;28;20809;-73
2021/12/14 00:41:11;;;;;;;13.83;12.03;;;;;;;;;;5034432;28;20230;-74
2021/12/14 00:43:37;;;;;;;16.20;12.47;;;;;;;;;;5037279;28;20953;-76
2021/12/14 00:46:02;;;;;;;16.67;12.57;;;;;;;;;;5031503;28;20485;-74
2021/12/14 00:48:28;;;;;;;14.10;12.60;;;;;;;;;;5035252;28;20266;-73
2021/12/14 00:50:55;;;;;;;14.43;12.93;;;;;;;;;;5034278;28;20873;-73
2021/12/14 00:53:20;;;;;;;22.70;14.10;;;;;;;;;;5034496;28;20211;-75
2021/12/14 00:55:47;;;;;;;13.80;12.37;;;;;;;;;;5031961;28;20488;-75
2021/12/14 00:58:13;;;;;;;17.10;13.13;;;;;;;;;;5027519;28;20188;-75
2021/12/14 01:00:40;;;;;;;13.93;12.40;;;;;;;;;;5035348;28;20422;-73
2021/12/14 01:03:06;;;;;;;14.47;12.97;;;;;;;;;;5033349;28;20777;-75
2021/12/14 01:05:33;;;;;;;19.50;13.10;;;;;;;;;;5026956;28;20454;-73
2021/12/14 01:08:00;;;;;;;15.00;12.47;;;;;;;;;;5026341;28;20188;-74
2021/12/14 01:10:28;;;;;;;14.70;12.07;;;;;;;;;;5035359;28;20453;-73
2021/12/14 01:12:58;;;;;;;13.13;11.83;;;;;;;;;;5037142;28;20998;-74
2021/12/14 01:15:31;;;;;;;14.27;12.87;;;;;;;;;;5036971;28;20461;-74
2021/12/14 01:18:14;;;;;;;13.83;12.37;;;;;;;;;;5034869;28;20446;-75
2021/12/14 01:20:43;;;;;;;15.40;11.83;;;;;;;;;;5035618;28;20414;-74
2021/12/14 01:23:17;;;;;;;15.53;12.70;;;;;;;;;;5038377;28;20870;-71
2021/12/14 01:25:45;;;;;;;15.63;12.17;;;;;;;;;;5037063;28;20434;-76
2021/12/14 01:28:12;;;;;;;13.40;11.80;;;;;;;;;;5033885;28;20456;-75
2021/12/14 01:31:00;;;;;;;14.70;12.17;;;;;;;;;;5032883;28;20450;-74
2021/12/14 01:33:27;;;;;;;19.10;11.50;;;;;;;;;;5034386;28;20870;-74
2021/12/14 01:35:53;;;;;;;12.53;11.20;;;;;;;;;;5032954;28;20535;-74
2021/12/14 01:40:56;;;;;;;15.80;11.27;;;;;;;;;;5035152;28;20861;-72
2021/12/14 01:43:28;;;;;;;12.53;11.23;;;;;;;;;;5034996;28;20454;-74
2021/12/14 01:45:54;;;;;;;13.27;11.60;;;;;;;;;;5037215;28;20437;-71
2021/12/14 01:48:20;;;;;;;15.90;10.60;;;;;;;;;;5033383;28;20484;-72
2021/12/14 01:50:47;;;;;;;12.20;10.90;;;;;;;;;;5033352;28;26109;-73
2021/12/14 01:53:14;;;;;;;12.13;10.90;;;;;;;;;;5035844;28;20194;-73
2021/12/14 01:55:44;;;;;;;13.67;11.50;;;;;;;;;;5029838;28;20497;-71
2021/12/14 01:58:10;;;;;;;13.33;11.03;;;;;;;;;;5035355;28;20430;-72
2021/12/14 02:00:41;;;;;;;16.70;11.63;;;;;;;;;;5032570;28;20435;-72
2021/12/14 02:03:08;;;;;;;15.17;11.87;;;;;;;;;;5030688;28;20859;-72
2021/12/14 02:05:36;;;;;;;13.10;10.50;;;;;;;;;;5034337;28;20908;-72
2021/12/14 02:08:03;;;;;;;12.57;10.73;;;;;;;;;;5031443;28;20575;-72
2021/12/14 02:10:31;;;;;;;15.30;11.93;;;;;;;;;;5034442;28;20434;-72
2021/12/14 02:12:56;;;;;;;12.73;11.53;;;;;;;;;;5034145;28;20438;-72
2021/12/14 02:15:25;;;;;;;13.23;11.83;;;;;;;;;;5035108;28;20979;-72
2021/12/14 02:17:51;;;;;;;12.03;10.37;;;;;;;;;;5034219;28;20199;-74
2021/12/14 02:20:20;;;;;;;11.90;10.77;;;;;;;;;;5035001;28;20755;-74
2021/12/14 02:22:49;;;;;;;13.20;11.13;;;;;;;;;;5033850;28;20935;-75
2021/12/14 02:25:15;;;;;;;11.70;10.50;;;;;;;;;;5033002;28;20454;-73
2021/12/14 02:27:43;;;;;;;13.90;9.70;;;;;;;;;;5031705;28;20429;-76
2021/12/14 02:30:12;;;;;;;13.57;11.33;;;;;;;;;;5032836;28;20249;-73
2021/12/14 02:32:37;;;;;;;13.50;11.97;;;;;;;;;;5031553;28;20555;-73
2021/12/14 02:35:06;;;;;;;17.40;11.80;;;;;;;;;;5037111;28;20467;-73
2021/12/14 02:37:43;;;;;;;14.80;11.70;;;;;;;;;;5029233;28;20178;-73
2021/12/14 02:40:18;;;;;;;13.03;11.43;;;;;;;;;;5031807;28;20441;-74
2021/12/14 02:42:43;;;;;;;14.13;11.37;;;;;;;;;;5036744;28;20418;-73
2021/12/14 02:45:09;;;;;;;15.10;12.40;;;;;;;;;;5031582;28;20511;-72
2021/12/14 02:47:34;;;;;;;14.93;12.27;;;;;;;;;;5031622;28;20184;-72
2021/12/14 02:50:00;;;;;;;17.33;13.27;;;;;;;;;;5034934;28;20274;-74
2021/12/14 02:52:37;;;;;;;13.60;12.20;;;;;;;;;;5032771;28;20640;-73
2021/12/14 02:55:14;;;;;;;15.40;13.10;;;;;;;;;;5035272;28;20215;-73
2021/12/14 02:57:44;;;;;;;19.40;15.70;;;;;;;;;;5032813;28;20434;-74
2021/12/14 03:00:16;;;;;;;15.90;13.70;;;;;;;;;;5032161;28;20518;-73
2021/12/14 03:02:42;;;;;;;18.60;15.40;;;;;;;;;;5034261;28;20922;-76
2021/12/14 03:05:15;;;;;;;17.70;14.63;;;;;;;;;;5032289;28;20470;-75
2021/12/14 03:07:45;;;;;;;21.23;15.10;;;;;;;;;;5031699;28;20437;-73
2021/12/14 03:10:50;;;;;;;20.37;17.00;;;;;;;;;;5049094;28;20430;-74
2021/12/14 03:13:16;;;;;;;16.73;14.93;;;;;;;;;;5036535;28;20438;-71
2021/12/14 03:15:48;;;;;;;18.20;15.17;;;;;;;;;;5037323;28;20470;-72
2021/12/14 03:18:15;;;;;;;17.40;15.57;;;;;;;;;;5036507;28;20198;-72
2021/12/14 03:20:46;;;;;;;19.23;16.53;;;;;;;;;;5032491;28;20431;-73
2021/12/14 03:23:16;;;;;;;20.37;16.53;;;;;;;;;;5034114;28;20421;-72
2021/12/14 03:25:44;;;;;;;18.90;16.17;;;;;;;;;;5031205;28;20449;-74
2021/12/14 03:28:11;;;;;;;17.77;15.90;;;;;;;;;;5032934;28;20500;-74
2021/12/14 03:30:41;;;;;;;17.30;15.40;;;;;;;;;;5034030;28;22778;-75
2021/12/14 03:33:08;;;;;;;21.43;17.10;;;;;;;;;;5031007;28;20568;-74
2021/12/14 03:35:47;;;;;;;19.70;16.57;;;;;;;;;;5033112;28;20470;-74
2021/12/14 03:38:30;;;;;;;20.13;17.93;;;;;;;;;;5033140;28;20436;-75
2021/12/14 03:41:00;;;;;;;21.23;17.43;;;;;;;;;;5037529;28;20438;-74
2021/12/14 03:43:29;;;;;;;22.80;18.43;;;;;;;;;;5039337;28;20801;-73
2021/12/14 03:45:56;;;;;;;25.10;18.17;;;;;;;;;;5036790;28;20445;-75
2021/12/14 03:48:22;;;;;;;19.07;16.90;;;;;;;;;;5038089;28;20449;-75
2021/12/14 03:50:48;;;;;;;22.33;17.50;;;;;;;;;;5033812;28;20433;-73
2021/12/14 03:53:13;;;;;;;21.27;17.87;;;;;;;;;;5039839;28;20434;-74
2021/12/14 03:55:42;;;;;;;20.80;17.07;;;;;;;;;;5035240;28;20214;-76
2021/12/14 03:58:12;;;;;;;22.90;18.77;;;;;;;;;;5031645;28;20262;-75
2021/12/14 04:00:39;;;;;;;22.23;17.53;;;;;;;;;;5049418;28;20442;-75
2021/12/14 04:03:09;;;;;;;20.80;16.93;;;;;;;;;;5033708;28;20984;-73
2021/12/14 04:05:35;;;;;;;20.33;18.17;;;;;;;;;;5036760;28;25689;-73
2021/12/14 04:08:01;;;;;;;19.00;16.50;;;;;;;;;;5037943;28;20429;-73
2021/12/14 04:10:29;;;;;;;22.70;17.97;;;;;;;;;;5033502;28;20442;-74
2021/12/14 04:12:55;;;;;;;24.50;18.70;;;;;;;;;;5038035;28;20184;-77
2021/12/14 04:15:23;;;;;;;24.17;19.00;;;;;;;;;;5034098;28;20476;-72
2021/12/14 04:17:49;;;;;;;22.67;18.77;;;;;;;;;;5040357;28;20191;-71
2021/12/14 04:20:19;;;;;;;21.43;18.87;;;;;;;;;;5037005;28;20477;-71
2021/12/14 04:22:48;;;;;;;22.80;18.00;;;;;;;;;;5036083;28;20968;-72
2021/12/14 04:25:14;;;;;;;25.10;19.60;;;;;;;;;;5037801;28;20453;-73
2021/12/14 04:27:40;;;;;;;23.97;18.80;;;;;;;;;;5035974;28;20757;-73
2021/12/14 04:30:08;;;;;;;21.67;18.80;;;;;;;;;;5030402;28;20441;-71
2021/12/14 04:32:33;;;;;;;22.70;20.27;;;;;;;;;;5038507;28;20211;-72
2021/12/14 04:34:59;;;;;;;20.40;17.43;;;;;;;;;;5035595;28;20516;-74
2021/12/14 04:37:24;;;;;;;24.03;20.57;;;;;;;;;;5035358;28;20230;-74
2021/12/14 04:39:58;;;;;;;25.50;18.60;;;;;;;;;;5033331;28;20176;-72
2021/12/14 04:53:38;;;;;;;24.50;19.43;;;;;;;;;;5034601;28;20500;-75
2021/12/14 04:56:10;;;;;;;26.00;20.50;;;;;;;;;;5040503;28;20471;-75
2021/12/14 04:58:40;;;;;;;25.17;20.63;;;;;;;;;;5038086;28;20487;-73
2021/12/14 05:01:12;;;;;;;29.80;21.40;;;;;;;;;;5035891;28;20435;-75
2021/12/14 05:03:37;;;;;;;25.57;20.20;;;;;;;;;;5037534;28;20539;-74
2021/12/14 05:11:16;;;;;;;24.53;19.33;;;;;;;;;;5037566;28;20445;-75
2021/12/14 05:13:43;;;;;;;24.87;18.80;;;;;;;;;;5037718;28;20483;-75
2021/12/14 05:16:15;;;;;;;23.47;20.10;;;;;;;;;;5042720;28;20458;-74
2021/12/14 05:18:53;;;;;;;25.63;20.77;;;;;;;;;;5036746;28;20779;-74
2021/12/14 05:21:27;;;;;;;20.90;18.43;;;;;;;;;;5041075;28;20426;-72
2021/12/14 05:23:52;;;;;;;23.73;19.53;;;;;;;;;;5033061;28;20443;-74
2021/12/14 05:26:18;;;;;;;21.90;18.90;;;;;;;;;;5032041;28;20438;-73
2021/12/14 05:28:44;;;;;;;28.70;20.30;;;;;;;;;;5033906;28;20187;-77
2021/12/14 05:31:09;;;;;;;23.20;19.53;;;;;;;;;;5017727;28;20437;-73
2021/12/14 05:33:37;;;;;;;27.00;20.57;;;;;;;;;;5034718;28;20730;-72
2021/12/14 05:36:14;;;;;;;25.40;19.87;;;;;;;;;;5031201;28;20269;-73
2021/12/14 05:39:16;;;;;;;23.47;19.93;;;;;;;;;;5029342;28;21906;-72
2021/12/14 05:44:22;;;;;;;26.30;20.67;;;;;;;;;;5030817;28;20480;-76
2021/12/14 05:46:52;;;;;;;26.20;20.87;;;;;;;;;;5030838;28;20415;-74
2021/12/14 05:49:23;;;;;;;22.17;18.40;;;;;;;;;;5030682;28;20915;-75
2021/12/14 05:51:52;;;;;;;24.50;19.80;;;;;;;;;;5028619;28;20511;-75
2021/12/14 05:54:18;;;;;;;24.87;20.03;;;;;;;;;;5028630;28;20554;-73
2021/12/14 05:56:44;;;;;;;25.30;20.60;;;;;;;;;;5033287;28;20557;-74
2021/12/14 05:59:09;;;;;;;24.97;20.87;;;;;;;;;;5027627;28;20875;-74
2021/12/14 06:01:35;;;;;;;23.67;20.27;;;;;;;;;;5028555;28;20221;-76
2021/12/14 06:04:04;;;;;;;24.63;18.97;;;;;;;;;;5029505;28;20842;-74
2021/12/14 06:06:32;;;;;;;22.67;18.87;;;;;;;;;;5030859;28;20267;-73
2021/12/14 06:09:24;;;;;;;24.50;18.93;;;;;;;;;;5034560;28;20793;-75
2021/12/14 06:11:53;;;;;;;24.40;18.67;;;;;;;;;;5030550;28;20453;-73
2021/12/14 06:14:26;;;;;;;21.73;19.20;;;;;;;;;;5028082;28;20453;-73
2021/12/14 06:16:54;;;;;;;24.43;19.17;;;;;;;;;;5031705;28;20470;-74
2021/12/14 06:19:27;;;;;;;26.20;18.53;;;;;;;;;;5033058;28;20436;-74
2021/12/14 06:22:07;;;;;;;28.30;19.80;;;;;;;;;;5034338;28;20490;-74
2021/12/14 06:24:37;;;;;;;19.80;17.00;;;;;;;;;;5034570;28;20457;-77
2021/12/14 06:27:06;;;;;;;19.67;16.90;;;;;;;;;;5030797;28;20442;-73
2021/12/14 06:29:34;;;;;;;22.43;18.00;;;;;;;;;;5031176;28;20442;-75
2021/12/14 06:32:14;;;;;;;23.30;17.87;;;;;;;;;;5027909;28;20442;-72
2021/12/14 06:34:45;;;;;;;23.60;17.70;;;;;;;;;;5030503;28;21012;-73
2021/12/14 06:40:18;;;;;;;22.17;18.03;;;;;;;;;;5001115;28;22542;-75
2021/12/14 06:42:46;;;;;;;20.33;17.77;;;;;;;;;;5039600;28;20438;-72
2021/12/14 06:45:26;;;;;;;22.80;19.10;;;;;;;;;;5029010;28;20469;-73
2021/12/14 06:47:53;;;;;;;26.30;18.70;;;;;;;;;;5031389;28;20439;-74
2021/12/14 06:50:24;;;;;;;25.73;18.83;;;;;;;;;;5035737;28;20515;-74
2021/12/14 06:53:05;;;;;;;23.30;18.70;;;;;;;;;;5026421;28;20449;-74
2021/12/14 06:55:32;;;;;;;24.03;18.57;;;;;;;;;;5035809;28;20488;-76
2021/12/14 06:58:15;;;;;;;25.77;18.70;;;;;;;;;;5031272;28;20480;-74
2021/12/14 07:00:47;;;;;;;24.43;19.40;;;;;;;;;;5032266;28;21135;-73
2021/12/14 07:03:13;;;;;;;26.80;19.77;;;;;;;;;;5027314;28;20426;-74
2021/12/14 07:05:40;;;;;;;24.17;20.03;;;;;;;;;;5035273;28;20779;-74
2021/12/14 07:08:10;;;;;;;29.83;20.27;;;;;;;;;;5033290;28;20203;-74
2021/12/14 07:10:39;;;;;;;32.70;21.07;;;;;;;;;;5024226;28;21094;-76
2021/12/14 07:13:12;;;;;;;23.40;19.20;;;;;;;;;;5030613;28;20446;-76
2021/12/14 07:15:40;;;;;;;26.57;21.00;;;;;;;;;;5038760;28;20465;-72
2021/12/14 07:18:08;;;;;;;24.80;19.23;;;;;;;;;;5037654;28;20435;-73
2021/12/14 07:20:49;;;;;;;22.77;20.00;;;;;;;;;;5038823;28;20774;-75
2021/12/14 07:23:33;;;;;;;23.40;19.87;;;;;;;;;;5030546;28;20512;-73
2021/12/14 07:26:03;;;;;;;27.17;18.80;;;;;;;;;;5036818;28;20437;-74
2021/12/14 07:28:32;;;;;;;25.70;20.40;;;;;;;;;;5034795;28;20563;-75
2021/12/14 07:31:00;;;;;;;27.90;20.23;;;;;;;;;;5033977;28;20502;-74
2021/12/14 07:33:28;;;;;;;27.53;20.10;;;;;;;;;;5035373;28;20464;-74
2021/12/14 07:35:57;;;;;;;25.27;20.80;;;;;;;;;;5042109;28;20497;-74
2021/12/14 07:38:28;;;;;;;25.53;20.10;;;;;;;;;;5036598;28;20437;-74
2021/12/14 07:40:56;;;;;;;28.30;20.50;;;;;;;;;;5035590;28;21014;-74
2021/12/14 07:43:24;;;;;;;24.53;20.77;;;;;;;;;;5039579;28;20460;-74
2021/12/14 07:45:51;;;;;;;27.83;21.30;;;;;;;;;;5038346;28;20764;-75
2021/12/14 07:48:17;;;;;;;26.40;22.60;;;;;;;;;;5037659;28;20448;-75
2021/12/14 07:50:45;;;;;;;30.23;21.23;;;;;;;;;;5039176;28;20454;-73
2021/12/14 07:53:11;;;;;;;25.80;20.67;;;;;;;;;;5035329;28;20437;-73
2021/12/14 07:55:38;;;;;;;25.33;20.17;;;;;;;;;;5035471;28;20835;-74
2021/12/14 07:58:05;;;;;;;27.97;20.53;;;;;;;;;;5049439;28;20196;-73
2021/12/14 08:00:41;;;;;;;29.73;20.53;;;;;;;;;;5037419;28;20427;-74
2021/12/14 08:03:10;;;;;;;23.50;19.50;;;;;;;;;;5037048;28;20429;-73
2021/12/14 08:05:38;;;;;;;28.10;21.63;;;;;;;;;;5035831;28;20507;-73
2021/12/14 08:08:15;;;;;;;24.80;20.97;;;;;;;;;;5037047;28;20482;-73
2021/12/14 08:10:49;;;;;;;24.73;20.17;;;;;;;;;;5034471;28;20419;-75
2021/12/14 08:13:24;;;;;;;26.47;20.57;;;;;;;;;;5034626;28;20434;-72
2021/12/14 08:16:00;;;;;;;27.67;22.00;;;;;;;;;;5026224;28;20469;-74
2021/12/14 08:18:28;;;;;;;26.57;21.00;;;;;;;;;;5032247;28;20531;-73
2021/12/14 08:20:58;;;;;;;26.53;21.20;;;;;;;;;;5034239;28;20872;-74
2021/12/14 08:23:35;;;;;;;28.37;22.30;;;;;;;;;;5034215;28;21105;-73
2021/12/14 08:26:07;;;;;;;26.83;22.23;;;;;;;;;;5037202;28;21049;-73
2021/12/14 08:28:46;;;;;;;36.43;23.13;;;;;;;;;;5031565;28;20434;-73
2021/12/14 08:31:12;;;;;;;28.47;21.53;;;;;;;;;;5033084;28;20437;-73
2021/12/14 08:33:37;;;;;;;29.97;22.30;;;;;;;;;;5026813;28;20446;-73
2021/12/14 08:36:06;;;;;;;24.90;20.90;;;;;;;;;;5020637;28;20211;-74
2021/12/14 08:38:33;;;;;;;27.87;21.47;;;;;;;;;;5014773;28;20279;-73
2021/12/14 08:41:22;;;;;;;33.23;22.77;;;;;;;;;;5024631;28;21290;-73
2021/12/14 08:43:52;;;;;;;26.33;21.10;;;;;;;;;;5022889;28;20713;-73
2021/12/14 08:46:23;;;;;;;29.70;22.10;;;;;;;;;;5025698;28;20845;-73
2021/12/14 08:48:51;;;;;;;23.47;20.80;;;;;;;;;;5029048;28;20434;-74
2021/12/14 08:51:21;;;;;;;28.57;22.37;;;;;;;;;;5031000;28;20438;-73
2021/12/14 08:53:46;;;;;;;23.93;20.60;;;;;;;;;;5031264;28;20494;-73
2021/12/14 08:56:19;;;;;;;25.20;20.53;;;;;;;;;;5033982;28;20548;-74
2021/12/14 08:58:46;;;;;;;33.33;22.13;;;;;;;;;;5031016;28;20188;-73
2021/12/14 09:01:15;;;;;;;31.00;22.00;;;;;;;;;;5033219;28;20454;-73
2021/12/14 09:03:45;;;;;;;25.27;21.20;;;;;;;;;;5032264;28;20466;-75
2021/12/14 09:06:20;;;;;;;25.50;21.13;;;;;;;;;;5028698;28;20439;-74
2021/12/14 09:08:46;;;;;;;25.50;21.90;;;;;;;;;;5030548;28;20923;-74
2021/12/14 09:11:12;;;;;;;23.20;20.37;;;;;;;;;;5033467;28;20580;-72
2021/12/14 09:13:38;;;;;;;28.07;22.50;;;;;;;;;;5031397;28;20449;-73
2021/12/14 09:16:06;;;;;;;24.97;21.17;;;;;;;;;;5017663;28;20472;-72
2021/12/14 09:18:34;;;;;;;24.33;21.03;;;;;;;;;;5027032;28;20934;-71
2021/12/14 09:21:10;;;;;;;29.77;21.87;;;;;;;;;;5033266;28;20860;-74
2021/12/14 09:23:37;;;;;;;27.60;21.60;;;;;;;;;;5034209;28;21213;-73
2021/12/14 09:26:07;;;;;;;23.97;21.43;;;;;;;;;;5036056;28;20544;-73
2021/12/14 09:28:33;;;;;;;30.90;23.97;;;;;;;;;;5036577;28;20426;-74
2021/12/14 09:31:04;;;;;;;29.43;22.73;;;;;;;;;;5032397;28;20430;-74
2021/12/14 09:33:35;;;;;;;29.40;23.43;;;;;;;;;;5028286;28;20196;-76
2021/12/14 09:36:00;;;;;;;30.27;23.07;;;;;;;;;;5035120;28;20604;-74
2021/12/14 09:38:32;;;;;;;33.60;26.13;;;;;;;;;;5035078;28;21897;-76
2021/12/14 09:41:00;;;;;;;34.57;25.03;;;;;;;;;;5027158;28;20552;-73
2021/12/14 09:43:25;;;;;;;32.77;25.80;;;;;;;;;;5032434;28;20486;-73
2021/12/14 09:45:54;;;;;;;30.43;23.27;;;;;;;;;;5031035;28;20434;-73
2021/12/14 09:48:22;;;;;;;30.83;23.27;;;;;;;;;;5024012;28;20203;-72
2021/12/14 09:51:07;;;;;;;31.30;24.40;;;;;;;;;;5035524;28;20431;-74
2021/12/14 09:53:33;;;;;;;30.20;22.57;;;;;;;;;;5033958;28;21039;-73
2021/12/14 09:56:02;;;;;;;31.80;24.80;;;;;;;;;;5031277;28;20519;-73
2021/12/14 09:58:30;;;;;;;28.93;23.37;;;;;;;;;;5034556;28;20438;-73
2021/12/14 10:00:58;;;;;;;32.30;24.90;;;;;;;;;;5032084;28;20434;-73
2021/12/14 10:03:24;;;;;;;33.47;25.67;;;;;;;;;;5029140;28;20592;-76
2021/12/14 10:05:54;;;;;;;32.13;25.20;;;;;;;;;;5036590;28;20442;-73
2021/12/14 10:08:22;;;;;;;31.83;24.50;;;;;;;;;;5033805;28;20442;-75
2021/12/14 10:11:03;;;;;;;28.23;23.80;;;;;;;;;;5034529;28;20792;-73
2021/12/14 10:13:29;;;;;;;29.50;23.67;;;;;;;;;;5037045;28;20804;-73
2021/12/14 10:15:57;;;;;;;33.03;25.27;;;;;;;;;;5031021;28;20450;-72
2021/12/14 10:18:36;;;;;;;30.57;24.20;;;;;;;;;;5033164;28;20536;-75
2021/12/14 10:21:09;;;;;;;33.90;26.27;;;;;;;;;;5033604;28;20411;-73
2021/12/14 10:23:36;;;;;;;36.93;26.60;;;;;;;;;;5036304;28;20445;-74
2021/12/14 10:26:05;;;;;;;35.50;26.63;;;;;;;;;;5035388;28;20435;-73
2021/12/14 10:28:32;;;;;;;35.73;25.10;;;;;;;;;;5035187;28;21151;-76
2021/12/14 10:31:03;;;;;;;33.07;26.43;;;;;;;;;;5035366;28;20430;-74
2021/12/14 10:33:31;;;;;;;37.77;27.30;;;;;;;;;;5032384;28;20461;-76
2021/12/14 10:36:01;;;;;;;37.20;27.40;;;;;;;;;;5032782;28;20676;-74
2021/12/14 10:38:29;;;;;;;40.00;28.30;;;;;;;;;;5028143;28;20431;-75
2021/12/14 10:43:59;;;;;;;33.80;27.23;;;;;;;;;;5035009;28;20553;-73
2021/12/14 10:46:29;;;;;;;33.70;27.23;;;;;;;;;;5031626;28;20430;-74
2021/12/14 10:48:57;;;;;;;33.17;26.30;;;;;;;;;;5031878;28;20934;-71
2021/12/14 10:51:25;;;;;;;38.93;29.30;;;;;;;;;;5030510;28;20441;-74
2021/12/14 10:53:52;;;;;;;34.20;26.43;;;;;;;;;;5032542;28;20956;-75
2021/12/14 10:56:23;;;;;;;39.60;26.57;;;;;;;;;;5032777;28;20473;-74
2021/12/14 10:59:12;;;;;;;34.50;27.27;;;;;;;;;;5035211;28;20442;-74
2021/12/14 11:01:49;;;;;;;40.00;27.87;;;;;;;;;;5030170;28;20434;-75
2021/12/14 11:04:15;;;;;;;38.40;28.20;;;;;;;;;;5034767;28;20511;-74
2021/12/14 11:06:45;;;;;;;38.20;27.80;;;;;;;;;;5034084;28;20504;-74
2021/12/14 11:11:38;;;;;;;34.53;26.30;;;;;;;;;;5036754;28;20434;-72
2021/12/14 11:14:13;;;;;;;39.43;27.30;;;;;;;;;;5033201;28;20500;-75
2021/12/14 11:20:01;;;;;;;35.93;27.93;;;;;;;;;;5035178;28;20451;-72
2021/12/14 11:22:29;;;;;;;40.87;28.77;;;;;;;;;;5034452;28;20429;-72
2021/12/14 11:25:06;;;;;;;39.83;29.53;;;;;;;;;;5034092;28;20500;-74
2021/12/14 11:27:34;;;;;;;37.43;28.83;;;;;;;;;;5031320;28;21074;-74
2021/12/14 11:30:14;;;;;;;38.83;28.60;;;;;;;;;;5032940;28;20487;-73
2021/12/14 11:32:42;;;;;;;39.43;28.33;;;;;;;;;;5033056;28;20442;-72
2021/12/14 11:35:19;;;;;;;40.07;30.70;;;;;;;;;;5036161;28;20458;-74
2021/12/14 11:37:45;;;;;;;43.70;32.30;;;;;;;;;;5031899;28;20487;-74
2021/12/14 11:40:11;;;;;;;38.37;31.70;;;;;;;;;;5033947;28;20426;-75
2021/12/14 11:42:36;;;;;;;40.07;30.27;;;;;;;;;;5034097;28;20183;-74
2021/12/14 11:45:16;;;;;;;36.40;28.60;;;;;;;;;;5035625;28;20200;-77
2021/12/14 11:47:53;;;;;;;37.60;29.33;;;;;;;;;;5034345;28;20215;-74
2021/12/14 11:50:21;;;;;;;36.80;28.40;;;;;;;;;;5032671;28;20476;-73
2021/12/14 11:52:52;;;;;;;32.73;26.90;;;;;;;;;;5033612;28;20467;-74
2021/12/14 11:55:33;;;;;;;30.00;25.37;;;;;;;;;;5034034;28;20465;-73
2021/12/14 11:58:06;;;;;;;29.40;25.40;;;;;;;;;;5033379;28;20699;-73
2021/12/14 12:00:36;;;;;;;28.83;25.10;;;;;;;;;;5033433;28;20980;-75
2021/12/14 12:03:30;;;;;;;29.03;22.80;;;;;;;;;;5031674;28;20897;-74
2021/12/14 12:06:06;;;;;;;28.97;22.47;;;;;;;;;;5028649;28;20468;-72
2021/12/14 12:11:21;;;;;;;28.77;23.77;;;;;;;;;;5034131;28;20424;-72
2021/12/14 12:13:50;;;;;;;31.93;24.60;;;;;;;;;;5032685;28;20558;-72
2021/12/14 12:16:19;;;;;;;32.13;26.70;;;;;;;;;;5030150;28;20457;-74
2021/12/14 12:19:06;;;;;;;29.93;25.73;;;;;;;;;;5034163;28;20418;-74
2021/12/14 12:21:32;;;;;;;34.57;25.90;;;;;;;;;;5028893;28;21128;-74
2021/12/14 12:24:06;;;;;;;26.97;23.13;;;;;;;;;;5032272;28;21004;-73
2021/12/14 12:26:33;;;;;;;31.00;24.73;;;;;;;;;;5035368;28;20199;-72
2021/12/14 12:29:02;;;;;;;30.80;24.50;;;;;;;;;;5037803;28;21008;-73
2021/12/14 12:31:28;;;;;;;31.50;25.27;;;;;;;;;;5034978;28;20450;-73
2021/12/14 12:33:55;;;;;;;30.97;25.33;;;;;;;;;;5038304;28;20450;-76
2021/12/14 12:36:26;;;;;;;33.40;25.47;;;;;;;;;;5036714;28;20466;-75
2021/12/14 12:38:56;;;;;;;31.70;24.43;;;;;;;;;;5035783;28;20527;-73
2021/12/14 12:41:42;;;;;;;31.10;25.00;;;;;;;;;;5035208;28;20422;-74
2021/12/14 12:44:22;;;;;;;29.43;23.17;;;;;;;;;;5045374;28;20455;-73
2021/12/14 12:46:56;;;;;;;29.00;22.63;;;;;;;;;;5037394;28;20429;-72
2021/12/14 12:49:25;;;;;;;27.73;22.20;;;;;;;;;;5030063;28;20456;-73
2021/12/14 12:52:04;;;;;;;31.70;23.60;;;;;;;;;;5030696;28;20434;-74
2021/12/14 12:54:44;;;;;;;26.37;22.90;;;;;;;;;;5031479;28;21088;-73
2021/12/14 12:57:10;;;;;;;27.80;21.73;;;;;;;;;;5028250;28;20469;-73
2021/12/14 12:59:51;;;;;;;28.77;21.17;;;;;;;;;;5029774;28;20439;-73
2021/12/14 13:02:30;;;;;;;24.97;21.70;;;;;;;;;;5031176;28;20176;-74
2021/12/14 13:05:14;;;;;;;28.00;21.50;;;;;;;;;;5036717;28;20992;-73
2021/12/14 13:07:45;;;;;;;23.40;19.47;;;;;;;;;;5027418;28;20473;-73
2021/12/14 13:10:13;;;;;;;23.30;19.70;;;;;;;;;;5030628;28;20431;-72
2021/12/14 13:12:44;;;;;;;23.97;19.73;;;;;;;;;;5031802;28;22119;-73
2021/12/14 13:15:28;;;;;;;21.13;18.80;;;;;;;;;;5036676;28;20501;-73
2021/12/14 13:18:12;;;;;;;22.07;18.60;;;;;;;;;;5033613;28;20442;-74
2021/12/14 13:20:37;;;;;;;21.13;18.70;;;;;;;;;;5033834;28;20480;-73
2021/12/14 13:23:03;;;;;;;22.03;19.07;;;;;;;;;;5033151;28;20431;-73
2021/12/14 13:25:42;;;;;;;23.63;19.00;;;;;;;;;;5035998;28;20256;-73
2021/12/14 13:28:08;;;;;;;19.80;16.90;;;;;;;;;;5052680;28;20731;-73
2021/12/14 13:30:53;;;;;;;22.87;18.50;;;;;;;;;;5037719;28;20441;-73
2021/12/14 13:33:23;;;;;;;21.00;18.57;;;;;;;;;;5037460;28;20477;-73
2021/12/14 13:35:54;;;;;;;18.97;16.10;;;;;;;;;;5016534;28;20497;-72
2021/12/14 13:38:22;;;;;;;18.97;16.97;;;;;;;;;;5029581;28;20556;-73
2021/12/14 13:40:48;;;;;;;18.57;15.60;;;;;;;;;;5032707;28;22659;-76
2021/12/14 13:43:16;;;;;;;19.90;16.70;;;;;;;;;;5033549;28;25741;-73
2021/12/14 13:46:01;;;;;;;17.97;16.00;;;;;;;;;;5031633;28;20268;-72
2021/12/14 13:48:34;;;;;;;16.23;13.70;;;;;;;;;;5018061;28;20434;-74
2021/12/14 13:51:02;;;;;;;16.98;15.27;;;;;;;;;;5018672;28;20466;-70
2021/12/14 13:53:31;;;;;;;18.00;15.70;;;;;;;;;;5028460;28;20196;-70
2021/12/14 13:55:59;;;;;;;15.10;13.50;;;;;;;;;;5033642;28;20593;-70
2021/12/14 13:58:26;;;;;;;17.50;14.90;;;;;;;;;;5033035;28;20433;-70
2021/12/14 14:00:53;;;;;;;16.63;14.40;;;;;;;;;;5031973;28;20426;-69
2021/12/14 14:03:23;;;;;;;15.87;14.00;;;;;;;;;;5039810;28;20461;-73
2021/12/14 14:05:49;;;;;;;15.77;14.07;;;;;;;;;;5031680;28;20453;-72
2021/12/14 14:08:19;;;;;;;19.50;15.53;;;;;;;;;;5036051;28;20462;-72
2021/12/14 14:10:46;;;;;;;17.77;15.20;;;;;;;;;;5035823;28;21034;-72
2021/12/14 14:13:19;;;;;;;18.13;15.70;;;;;;;;;;5036995;28;20442;-73
2021/12/14 14:15:45;;;;;;;17.00;14.70;;;;;;;;;;5028178;28;20978;-74
2021/12/14 14:18:13;;;;;;;16.63;14.70;;;;;;;;;;5034507;28;20439;-73
2021/12/14 14:20:48;;;;;;;16.10;13.60;;;;;;;;;;5033403;28;20426;-72
2021/12/14 14:23:13;;;;;;;16.00;13.80;;;;;;;;;;5037434;28;20422;-74
2021/12/14 14:25:54;;;;;;;15.00;13.37;;;;;;;;;;5034687;28;20439;-71
2021/12/14 14:28:24;;;;;;;15.97;14.20;;;;;;;;;;5031751;28;20272;-71
2021/12/14 14:30:51;;;;;;;17.03;14.27;;;;;;;;;;5034159;28;20532;-73
2021/12/14 14:33:21;;;;;;;14.63;12.80;;;;;;;;;;5029417;28;20521;-73
2021/12/14 14:35:55;;;;;;;15.33;13.30;;;;;;;;;;5031909;28;20547;-74
2021/12/14 14:38:26;;;;;;;14.13;12.13;;;;;;;;;;5046253;28;20484;-72
2021/12/14 14:41:03;;;;;;;15.63;13.83;;;;;;;;;;5034054;28;20431;-72
2021/12/14 14:43:47;;;;;;;13.63;12.20;;;;;;;;;;5033697;28;20454;-73
2021/12/14 14:46:13;;;;;;;15.80;13.37;;;;;;;;;;5028618;28;20458;-71
2021/12/14 14:48:38;;;;;;;14.67;13.17;;;;;;;;;;5028845;28;20466;-71
2021/12/14 14:51:03;;;;;;;14.00;12.30;;;;;;;;;;5033898;28;20187;-71
2021/12/14 14:53:38;;;;;;;12.13;10.77;;;;;;;;;;5036004;28;21148;-72
2021/12/14 14:56:13;;;;;;;12.67;10.57;;;;;;;;;;5030756;28;21219;-73
2021/12/14 14:58:42;;;;;;;14.17;12.03;;;;;;;;;;5033015;28;21376;-70
2021/12/14 15:01:14;;;;;;;12.30;11.00;;;;;;;;;;5034640;28;20422;-74
2021/12/14 15:03:51;;;;;;;13.50;11.60;;;;;;;;;;5035425;28;20544;-73
2021/12/14 15:06:19;;;;;;;13.70;12.20;;;;;;;;;;5036701;28;20426;-72
2021/12/14 15:08:51;;;;;;;12.20;10.90;;;;;;;;;;5033436;28;20814;-72
2021/12/14 15:11:29;;;;;;;13.40;12.00;;;;;;;;;;5034760;28;20438;-73
2021/12/14 15:14:04;;;;;;;19.20;14.40;;;;;;;;;;5036482;28;20468;-73
2021/12/14 15:16:32;;;;;;;17.70;14.20;;;;;;;;;;5034226;28;20460;-70